Time;durP1;ratioP1;P1;durP2;ratioP2;P2;SDS_P1;SDS_P2;PMS_P1;PMS_P2;Temp;Humidity;BMP_temperature;BMP_pressure;BME280_temperature;BME280_humidity;BME280_pressure;Samples;Min_cycle;Max_cycle;Signal;HPM_P1;HPM_P2
2023/03/22 00:01:29;;;;;;;32.30;26.50;;;;;;;9.69;82.78;99600.23;107241;1261;72945;-73
2023/03/22 00:03:56;;;;;;;29.90;24.80;;;;;;;9.62;83.07;99601.98;107293;1260;59618;-73
2023/03/22 00:06:25;;;;;;;29.20;24.30;;;;;;;9.58;83.18;99597.63;106842;1260;59705;-73
2023/03/22 00:08:52;;;;;;;25.70;22.40;;;;;;;9.60;83.41;99601.58;106444;1259;72861;-75
2023/03/22 00:11:23;;;;;;;26.80;22.60;;;;;;;9.70;82.73;99604.43;107000;1260;68498;-75
2023/03/22 00:13:51;;;;;;;30.60;23.30;;;;;;;9.71;82.36;99606.55;107060;1260;72631;-75
2023/03/22 00:16:18;;;;;;;29.20;23.60;;;;;;;9.61;82.56;99608.88;106745;1258;61393;-72
2023/03/22 00:19:01;;;;;;;27.70;22.50;;;;;;;9.55;83.01;99609.20;106691;1263;59757;-74
2023/03/22 00:21:29;;;;;;;28.70;23.80;;;;;;;9.50;82.97;99607.71;107090;1260;74113;-76
2023/03/22 00:23:56;;;;;;;27.60;21.70;;;;;;;9.49;82.62;99611.94;106494;1260;69217;-72
2023/03/22 00:26:23;;;;;;;23.10;20.40;;;;;;;9.55;82.45;99607.55;106019;1260;73257;-74
2023/03/22 00:28:50;;;;;;;26.60;21.20;;;;;;;9.60;82.26;99608.77;106337;1260;60476;-76
2023/03/22 00:31:21;;;;;;;28.20;22.40;;;;;;;9.53;82.38;99618.94;107349;1260;59576;-77
2023/03/22 00:33:49;;;;;;;24.80;21.20;;;;;;;9.45;82.47;99612.67;107892;1259;72860;-75
2023/03/22 00:36:16;;;;;;;27.50;22.60;;;;;;;9.37;82.44;99618.50;107346;1260;69551;-73
2023/03/22 00:38:44;;;;;;;25.90;20.90;;;;;;;9.32;82.91;99620.25;107189;1265;73236;-74
2023/03/22 00:41:16;;;;;;;23.00;19.90;;;;;;;9.38;82.63;99617.51;106941;1264;61818;-75
2023/03/22 00:43:45;;;;;;;25.20;21.10;;;;;;;9.42;82.78;99617.42;107043;1264;59526;-75
2023/03/22 00:46:13;;;;;;;25.60;20.80;;;;;;;9.38;83.04;99618.07;107294;1260;74281;-77
2023/03/22 00:48:39;;;;;;;25.50;22.70;;;;;;;9.32;83.02;99620.58;107399;1264;70004;-75
2023/03/22 00:51:07;;;;;;;26.20;22.80;;;;;;;9.29;83.18;99617.02;108017;1259;70703;-73
2023/03/22 00:53:37;;;;;;;27.00;22.70;;;;;;;9.26;83.59;99612.90;108441;1259;59086;-71
2023/03/22 00:56:07;;;;;;;23.50;19.40;;;;;;;9.23;83.17;99611.07;108292;1259;58333;-74
2023/03/22 00:58:42;;;;;;;24.40;19.30;;;;;;;9.30;82.85;99609.23;108818;1253;71888;-72
2023/03/22 01:01:12;;;;;;;27.30;21.10;;;;;;;9.32;82.90;99610.02;109228;1253;68034;-71
2023/03/22 01:03:41;;;;;;;26.00;21.30;;;;;;;9.29;83.33;99607.31;109152;1253;71996;-72
2023/03/22 01:06:09;;;;;;;24.00;21.00;;;;;;;9.24;83.51;99609.55;108517;1254;60374;-71
2023/03/22 01:08:37;;;;;;;24.00;21.20;;;;;;;9.17;83.64;99615.08;108105;1254;60384;-71
2023/03/22 01:11:05;;;;;;;24.40;20.60;;;;;;;9.12;83.67;99612.34;108108;1254;73364;-70
2023/03/22 01:13:36;;;;;;;23.00;19.60;;;;;;;9.19;83.52;99615.64;107371;1254;70809;-71
2023/03/22 01:16:04;;;;;;;22.50;19.40;;;;;;;9.25;83.52;99613.92;107877;1254;71538;-72
2023/03/22 01:18:33;;;;;;;24.40;21.50;;;;;;;9.23;83.79;99612.34;107928;1254;59596;-72
2023/03/22 01:21:01;;;;;;;26.70;22.30;;;;;;;9.20;83.58;99612.86;109434;1253;59692;-73
2023/03/22 01:23:28;;;;;;;23.60;21.10;;;;;;;9.14;83.61;99611.05;109272;1255;72999;-73
2023/03/22 01:25:55;;;;;;;26.60;19.30;;;;;;;9.07;83.69;99616.34;109356;1253;70236;-74
2023/03/22 01:28:22;;;;;;;20.60;18.20;;;;;;;9.12;83.60;99614.27;109300;1253;70947;-72
2023/03/22 01:30:53;;;;;;;20.70;18.50;;;;;;;9.11;83.79;99615.95;108846;1252;59477;-72
2023/03/22 01:33:20;;;;;;;25.70;20.40;;;;;;;9.06;83.93;99619.09;109298;1253;60465;-73
2023/03/22 01:35:47;;;;;;;23.20;20.50;;;;;;;9.05;84.27;99620.77;109306;1254;71252;-73
2023/03/22 01:38:15;;;;;;;23.10;19.50;;;;;;;9.04;84.04;99621.79;109360;1254;70342;-71
2023/03/22 01:40:49;;;;;;;24.00;17.80;;;;;;;9.13;83.99;99621.05;109181;1254;70737;-71
2023/03/22 01:43:17;;;;;;;22.00;18.80;;;;;;;9.15;83.77;99624.14;109361;1253;59991;-71
2023/03/22 01:45:50;;;;;;;25.80;20.40;;;;;;;9.07;83.69;99629.42;107891;1253;60553;-71
2023/03/22 01:48:40;;;;;;;21.90;18.80;;;;;;;8.97;84.08;99631.95;108248;1254;73881;-73
2023/03/22 01:51:09;;;;;;;24.90;19.90;;;;;;;8.86;84.51;99635.47;109297;1253;68213;-71
2023/03/22 01:53:54;;;;;;;20.60;17.40;;;;;;;8.80;84.68;99635.27;109217;1253;71701;-71
2023/03/22 01:56:29;;;;;;;20.20;16.80;;;;;;;8.84;84.72;99638.38;109168;1254;61649;-72
2023/03/22 01:58:56;;;;;;;19.70;17.60;;;;;;;8.89;84.98;99636.85;109198;1253;60371;-69
2023/03/22 02:01:32;;;;;;;20.70;18.00;;;;;;;8.84;85.18;99638.13;109411;1253;72043;-71
2023/03/22 02:04:02;;;;;;;21.00;18.40;;;;;;;8.81;85.39;99637.44;109295;1253;70360;-70
2023/03/22 02:06:31;;;;;;;22.20;19.20;;;;;;;8.77;85.38;99639.22;109202;1254;72731;-72
2023/03/22 02:09:07;;;;;;;20.20;17.00;;;;;;;8.77;85.72;99639.08;109252;1253;61055;-73
2023/03/22 02:11:40;;;;;;;19.30;16.10;;;;;;;8.87;85.60;99641.45;108188;1252;59674;-74
2023/03/22 02:14:14;;;;;;;19.80;16.40;;;;;;;8.96;85.66;99646.30;108500;1252;73007;-73
2023/03/22 02:17:31;;;;;;;19.60;16.70;;;;;;;8.98;85.64;99643.77;108991;1253;68815;-73
2023/03/22 02:20:27;;;;;;;20.90;18.60;;;;;;;8.96;85.26;99647.66;109231;1252;71800;-72
2023/03/22 02:23:18;;;;;;;21.10;16.70;;;;;;;8.88;84.95;99648.44;108621;1253;61680;-75
2023/03/22 02:25:58;;;;;;;22.80;18.40;;;;;;;8.89;84.63;99648.34;107939;1253;60315;-74
2023/03/22 02:28:38;;;;;;;23.60;17.80;;;;;;;8.82;84.37;99653.34;107965;1253;73067;-71
2023/03/22 02:31:10;;;;;;;20.30;18.10;;;;;;;8.68;84.63;99652.70;108390;1253;71640;-73
2023/03/22 02:33:50;;;;;;;20.40;18.20;;;;;;;8.55;84.97;99651.92;108385;1253;72672;-72
2023/03/22 02:36:36;;;;;;;18.10;16.10;;;;;;;8.47;85.55;99649.89;107674;1254;63229;-73
2023/03/22 02:39:08;;;;;;;21.40;17.40;;;;;;;8.52;85.72;99651.57;108522;1253;58803;-73
2023/03/22 02:41:53;;;;;;;21.10;17.00;;;;;;;8.52;85.62;99656.60;108302;1254;72232;-73
2023/03/22 02:44:26;;;;;;;22.20;19.40;;;;;;;8.48;85.95;99654.39;107459;1254;68308;-72
2023/03/22 02:47:03;;;;;;;22.10;19.00;;;;;;;8.39;85.85;99653.46;107789;1252;72231;-71
2023/03/22 02:49:41;;;;;;;25.00;20.30;;;;;;;8.35;86.19;99656.07;109360;1254;62127;-70
2023/03/22 02:52:20;;;;;;;21.10;17.10;;;;;;;8.46;86.13;99661.46;109273;1253;59390;-71
2023/03/22 02:55:03;;;;;;;22.20;19.50;;;;;;;8.54;86.15;99665.05;109180;1254;71841;-72
2023/03/22 02:57:39;;;;;;;21.30;18.40;;;;;;;8.58;86.51;99666.83;108775;1253;69431;-70
2023/03/22 03:00:11;;;;;;;21.80;19.30;;;;;;;8.62;86.37;99672.23;106245;1254;72945;-71
2023/03/22 03:02:42;;;;;;;19.50;17.30;;;;;;;8.66;86.45;99675.17;105797;1254;61414;-72
2023/03/22 03:05:09;;;;;;;20.10;16.90;;;;;;;8.77;86.29;99673.85;105898;1254;61253;-74
2023/03/22 03:07:36;;;;;;;21.70;17.30;;;;;;;8.83;85.49;99676.65;105517;1253;74594;-72
2023/03/22 03:10:04;;;;;;;22.10;18.50;;;;;;;8.80;85.99;99678.04;105649;1260;70036;-74
2023/03/22 03:12:31;;;;;;;22.20;17.70;;;;;;;8.75;85.89;99681.30;105682;1253;72903;-73
2023/03/22 03:14:59;;;;;;;19.70;17.40;;;;;;;8.70;86.20;99678.27;105832;1257;60448;-72
2023/03/22 03:17:58;;;;;;;18.40;15.40;;;;;;;8.69;86.55;99679.30;105679;1256;60657;-73
2023/03/22 03:20:29;;;;;;;19.10;15.60;;;;;;;8.79;85.73;99681.73;105806;1253;74852;-72
2023/03/22 03:22:55;;;;;;;20.20;16.40;;;;;;;8.80;85.60;99683.80;105832;1254;71440;-73
2023/03/22 03:25:31;;;;;;;18.30;16.10;;;;;;;8.70;85.54;99687.95;105893;1253;71493;-72
2023/03/22 03:28:21;;;;;;;18.30;16.20;;;;;;;8.60;86.10;99684.42;105892;1254;61322;-74
2023/03/22 03:30:55;;;;;;;17.70;15.10;;;;;;;8.57;86.52;99689.63;105814;1257;60582;-74
2023/03/22 03:33:24;;;;;;;19.60;15.10;;;;;;;8.65;86.07;99693.61;105843;1252;74638;-72
2023/03/22 03:35:58;;;;;;;17.90;15.30;;;;;;;8.66;85.80;99695.34;105807;1253;69513;-71
2023/03/22 03:38:27;;;;;;;21.70;16.80;;;;;;;8.56;86.05;99698.07;105937;1253;71550;-73
2023/03/22 03:41:02;;;;;;;18.70;16.00;;;;;;;8.50;86.27;99702.23;106132;1253;60407;-71
2023/03/22 03:43:30;;;;;;;17.60;14.90;;;;;;;8.47;86.80;99705.32;105878;1254;60432;-71
2023/03/22 03:45:56;;;;;;;18.20;15.00;;;;;;;8.54;86.32;99704.63;105875;1257;74952;-73
2023/03/22 03:48:27;;;;;;;18.20;14.90;;;;;;;8.56;86.29;99707.20;105772;1259;69177;-74
2023/03/22 03:50:55;;;;;;;17.20;15.40;;;;;;;8.53;86.48;99704.55;105880;1257;71731;-72
2023/03/22 03:53:22;;;;;;;19.00;16.30;;;;;;;8.51;86.42;99706.90;105804;1254;60547;-72
2023/03/22 03:55:49;;;;;;;20.10;16.00;;;;;;;8.50;86.51;99705.41;105752;1259;60342;-72
2023/03/22 03:58:16;;;;;;;18.10;15.60;;;;;;;8.48;86.41;99708.63;105890;1253;74669;-73
2023/03/22 04:00:45;;;;;;;17.70;15.40;;;;;;;8.51;86.00;99711.27;105922;1252;71352;-72
2023/03/22 04:03:35;;;;;;;18.60;14.70;;;;;;;8.45;85.76;99709.71;105876;1256;70868;-72
2023/03/22 04:06:10;;;;;;;19.60;16.50;;;;;;;8.33;86.25;99711.15;105911;1253;60485;-73
2023/03/22 04:08:40;;;;;;;19.40;16.40;;;;;;;8.23;86.78;99710.15;105895;1253;61162;-73
2023/03/22 04:11:08;;;;;;;16.20;14.30;;;;;;;8.19;87.22;99710.11;106026;1253;74079;-71
2023/03/22 04:13:36;;;;;;;18.30;15.30;;;;;;;8.28;87.65;99711.14;105763;1253;71384;-72
2023/03/22 04:16:06;;;;;;;19.00;16.00;;;;;;;8.37;87.03;99713.05;105734;1253;73744;-74
2023/03/22 04:18:34;;;;;;;17.90;16.00;;;;;;;8.31;86.87;99711.66;105882;1253;61141;-71
2023/03/22 04:21:04;;;;;;;18.80;16.70;;;;;;;8.25;87.43;99714.03;105853;1254;60466;-74
2023/03/22 04:23:38;;;;;;;18.60;16.30;;;;;;;8.23;87.78;99711.36;105771;1253;75067;-75
2023/03/22 04:26:05;;;;;;;18.80;16.70;;;;;;;8.37;87.76;99710.38;105845;1253;69501;-73
2023/03/22 04:28:48;;;;;;;26.00;17.60;;;;;;;8.50;87.48;99708.45;105936;1254;73559;-74
2023/03/22 04:31:17;;;;;;;19.80;16.50;;;;;;;8.49;87.34;99711.46;105920;1254;60333;-73
2023/03/22 04:33:53;;;;;;;18.80;16.90;;;;;;;8.46;86.97;99712.52;106580;1253;60607;-74
2023/03/22 04:36:29;;;;;;;21.80;17.90;;;;;;;8.40;86.90;99715.20;107775;1253;73018;-75
2023/03/22 04:39:15;;;;;;;19.70;16.60;;;;;;;8.40;86.84;99718.05;105863;1253;71297;-73
2023/03/22 04:41:49;;;;;;;23.40;20.40;;;;;;;8.48;86.50;99723.55;105723;1253;73171;-73
2023/03/22 04:44:17;;;;;;;22.60;20.10;;;;;;;8.51;86.54;99725.92;105772;1252;60484;-72
2023/03/22 04:46:48;;;;;;;22.90;19.50;;;;;;;8.52;86.92;99726.23;105698;1254;60465;-73
2023/03/22 04:49:15;;;;;;;21.40;17.10;;;;;;;8.52;87.21;99726.69;105916;1253;74778;-74
2023/03/22 04:51:44;;;;;;;19.20;15.30;;;;;;;8.56;87.22;99733.24;105969;1253;71190;-73
2023/03/22 04:54:19;;;;;;;21.30;15.40;;;;;;;8.71;87.25;99736.28;105828;1256;72634;-72
2023/03/22 04:56:45;;;;;;;17.60;15.60;;;;;;;8.83;86.83;99740.34;105913;1252;60583;-75
2023/03/22 04:59:13;;;;;;;18.90;15.40;;;;;;;8.86;86.51;99742.17;105921;1253;61438;-74
2023/03/22 05:01:47;;;;;;;18.00;14.70;;;;;;;8.85;86.24;99740.48;105879;1256;72870;-72
2023/03/22 05:04:16;;;;;;;17.70;14.50;;;;;;;8.85;86.08;99743.13;105944;1252;70648;-72
2023/03/22 05:06:43;;;;;;;15.80;13.50;;;;;;;8.94;85.56;99747.16;105807;1253;74328;-72
2023/03/22 05:09:16;;;;;;;17.00;13.70;;;;;;;8.99;85.43;99748.23;105766;1253;60946;-73
2023/03/22 05:11:43;;;;;;;17.60;15.10;;;;;;;8.97;85.36;99750.17;105902;1253;61178;-74
2023/03/22 05:14:30;;;;;;;16.80;14.10;;;;;;;8.97;85.87;99748.95;105805;1253;72659;-74
2023/03/22 05:16:58;;;;;;;14.20;12.70;;;;;;;8.99;85.39;99750.75;105825;1253;71369;-73
2023/03/22 05:19:26;;;;;;;17.30;13.40;;;;;;;9.08;85.34;99756.46;105924;1253;71911;-76
2023/03/22 05:21:56;;;;;;;17.10;14.50;;;;;;;9.17;84.86;99760.39;105827;1254;60496;-70
2023/03/22 05:24:25;;;;;;;17.00;14.30;;;;;;;9.13;84.91;99759.33;105850;1254;60635;-74
2023/03/22 05:26:52;;;;;;;17.60;15.30;;;;;;;9.07;84.41;99763.20;105896;1254;73075;-74
2023/03/22 05:29:23;;;;;;;19.60;16.10;;;;;;;9.03;84.87;99767.79;106626;1253;70754;-73
2023/03/22 05:32:12;;;;;;;19.20;15.60;;;;;;;9.02;85.13;99768.77;106131;1253;73446;-72
2023/03/22 05:34:41;;;;;;;19.20;15.10;;;;;;;9.14;85.13;99765.60;105882;1253;61748;-74
2023/03/22 05:37:19;;;;;;;19.40;15.10;;;;;;;9.21;84.59;99766.16;105746;1256;60867;-74
2023/03/22 05:39:54;;;;;;;19.60;15.60;;;;;;;9.19;84.58;99767.03;105870;1256;73304;-75
2023/03/22 05:42:25;;;;;;;20.30;16.20;;;;;;;9.15;84.46;99772.59;105876;1253;70347;-76
2023/03/22 05:44:52;;;;;;;19.50;15.50;;;;;;;9.11;84.57;99775.10;105880;1253;73639;-73
2023/03/22 05:47:20;;;;;;;18.20;14.90;;;;;;;9.21;84.93;99776.60;105911;1253;61167;-73
2023/03/22 05:50:08;;;;;;;20.00;16.60;;;;;;;9.31;84.59;99777.88;105699;1253;60538;-74
2023/03/22 05:52:34;;;;;;;19.50;16.00;;;;;;;9.32;84.61;99784.52;105817;1255;74789;-75
2023/03/22 05:55:21;;;;;;;19.40;16.80;;;;;;;9.31;84.86;99782.65;105942;1257;70920;-73
2023/03/22 05:57:52;;;;;;;17.30;15.00;;;;;;;9.31;84.76;99786.71;105803;1253;73837;-71
2023/03/22 06:00:20;;;;;;;17.60;15.30;;;;;;;9.41;84.59;99793.43;105795;1254;62908;-71
2023/03/22 06:03:09;;;;;;;21.80;17.40;;;;;;;9.47;84.32;99797.56;105956;1253;60875;-73
2023/03/22 06:05:41;;;;;;;19.90;15.80;;;;;;;9.43;84.44;99792.88;105969;1253;75042;-73
2023/03/22 06:08:09;;;;;;;19.50;17.20;;;;;;;9.38;84.27;99798.12;105676;1256;71428;-72
2023/03/22 06:10:37;;;;;;;20.70;17.40;;;;;;;9.31;84.13;99798.69;105864;1256;72641;-73
2023/03/22 06:13:07;;;;;;;17.10;14.60;;;;;;;9.28;84.28;99800.56;106033;1253;62737;-73
2023/03/22 06:15:34;;;;;;;17.60;15.70;;;;;;;9.37;84.19;99803.91;105849;1252;60476;-74
2023/03/22 06:18:07;;;;;;;17.50;15.60;;;;;;;9.45;84.64;99806.11;105961;1256;74784;-76
2023/03/22 06:20:39;;;;;;;18.00;15.70;;;;;;;9.45;84.26;99807.54;105879;1256;72006;-73
2023/03/22 06:23:11;;;;;;;17.60;15.70;;;;;;;9.41;84.23;99809.67;106274;1253;73346;-74
2023/03/22 06:25:38;;;;;;;17.00;14.20;;;;;;;9.40;84.46;99810.42;107172;1253;60426;-74
2023/03/22 06:28:05;;;;;;;15.00;13.40;;;;;;;9.46;84.43;99814.99;106705;1254;60536;-76
2023/03/22 06:30:35;;;;;;;16.30;13.50;;;;;;;9.59;84.17;99815.75;106011;1257;72898;-76
2023/03/22 06:33:11;;;;;;;17.00;13.90;;;;;;;9.68;84.41;99818.73;105960;1253;70582;-71
2023/03/22 06:35:40;;;;;;;16.30;14.60;;;;;;;9.70;83.86;99817.98;106097;1253;72506;-75
2023/03/22 06:38:08;;;;;;;19.40;14.70;;;;;;;9.73;83.79;99820.64;105845;1253;60419;-74
2023/03/22 06:40:36;;;;;;;17.00;14.30;;;;;;;9.80;83.90;99822.81;106208;1256;60524;-78
2023/03/22 06:43:04;;;;;;;17.50;13.60;;;;;;;9.94;83.38;99825.05;106102;1256;72996;-77
2023/03/22 06:45:34;;;;;;;17.60;13.80;;;;;;;10.06;82.84;99826.64;106085;1253;70614;-77
2023/03/22 06:48:02;;;;;;;17.20;15.20;;;;;;;10.08;82.69;99831.17;105996;1253;73937;-78
2023/03/22 06:50:52;;;;;;;15.30;13.50;;;;;;;10.11;82.89;99833.75;105919;1251;61033;-75
2023/03/22 06:53:25;;;;;;;19.30;14.30;;;;;;;10.14;82.02;99837.80;106061;1253;60439;-76
2023/03/22 06:55:52;;;;;;;17.40;13.30;;;;;;;10.16;82.24;99839.36;106392;1257;72950;-76
2023/03/22 06:58:23;;;;;;;13.90;12.20;;;;;;;10.31;82.12;99842.55;106262;1253;70197;-77
2023/03/22 07:00:50;;;;;;;17.10;13.80;;;;;;;10.44;81.88;99841.13;106113;1256;73707;-76
2023/03/22 07:03:21;;;;;;;15.20;13.50;;;;;;;10.48;81.20;99837.37;107068;1256;61064;-75
2023/03/22 07:06:01;;;;;;;;;;;;;;;10.49;81.52;99838.55;107233;1253;60446;-75
2023/03/22 07:08:31;;;;;;;18.90;15.30;;;;;;;10.54;81.38;99836.76;106604;1254;74444;-71
2023/03/22 07:11:05;;;;;;;13.90;12.30;;;;;;;10.61;81.33;99836.02;106352;1256;70247;-72
2023/03/22 07:13:34;;;;;;;14.80;12.90;;;;;;;10.78;81.06;99838.95;106190;1250;70567;-73
2023/03/22 07:16:03;;;;;;;15.40;13.80;;;;;;;10.90;79.98;99840.66;106026;1258;60422;-73
2023/03/22 07:18:41;;;;;;;19.60;16.10;;;;;;;10.92;80.55;99845.67;105885;1255;61421;-72
2023/03/22 07:21:08;;;;;;;15.80;13.50;;;;;;;10.98;80.60;99843.83;106336;1256;75113;-74
2023/03/22 07:23:35;;;;;;;16.30;13.40;;;;;;;11.02;79.32;99844.45;106557;1252;71404;-77
2023/03/22 07:26:08;;;;;;;17.30;13.80;;;;;;;11.03;78.73;99843.27;105989;1253;72714;-76
2023/03/22 07:28:40;;;;;;;15.00;12.20;;;;;;;11.10;78.23;99841.06;105904;1253;63261;-74
2023/03/22 07:31:11;;;;;;;14.30;12.40;;;;;;;11.18;78.77;99838.98;106126;1256;60349;-76
2023/03/22 07:33:47;;;;;;;14.40;12.80;;;;;;;11.28;78.90;99843.35;106079;1256;74625;-76
2023/03/22 07:36:22;;;;;;;18.60;14.20;;;;;;;11.34;78.32;99837.51;105961;1253;70426;-76
2023/03/22 07:38:52;;;;;;;17.00;13.50;;;;;;;11.43;78.75;99835.62;105890;1253;70937;-75
2023/03/22 07:41:25;;;;;;;12.60;11.20;;;;;;;11.54;78.38;99835.36;105963;1253;62252;-75
2023/03/22 07:43:55;;;;;;;13.90;11.70;;;;;;;11.73;77.74;99839.61;106084;1252;60527;-75
2023/03/22 07:46:46;;;;;;;14.60;11.10;;;;;;;11.87;76.56;99838.05;105978;1252;73810;-78
2023/03/22 07:49:21;;;;;;;15.00;12.60;;;;;;;11.91;76.08;99837.02;105922;1253;71207;-77
2023/03/22 07:52:04;;;;;;;15.40;12.10;;;;;;;11.97;75.59;99832.66;106008;1251;72575;-76
2023/03/22 07:54:31;;;;;;;18.10;15.50;;;;;;;11.96;75.39;99837.89;106204;1251;61299;-76
2023/03/22 07:57:03;;;;;;;18.60;13.20;;;;;;;12.02;75.74;99840.86;107394;1251;61399;-79
2023/03/22 07:59:30;;;;;;;18.30;14.60;;;;;;;12.09;75.40;99838.25;106186;1253;75636;-80
2023/03/22 08:01:58;;;;;;;19.80;16.60;;;;;;;12.24;74.84;99839.20;106024;1252;71136;-79
2023/03/22 08:04:29;;;;;;;17.30;14.30;;;;;;;12.36;74.28;99841.80;106082;1257;73053;-78
2023/03/22 08:07:17;;;;;;;16.20;14.50;;;;;;;12.39;74.15;99843.12;106092;1253;61355;-79
2023/03/22 08:09:46;;;;;;;18.50;15.90;;;;;;;12.43;73.94;99839.38;106162;1254;61421;-78
2023/03/22 08:12:15;;;;;;;16.30;14.10;;;;;;;12.52;74.66;99841.14;106435;1253;73602;-77
2023/03/22 08:14:46;;;;;;;18.30;14.90;;;;;;;12.66;74.15;99841.49;109283;1252;70382;-78
2023/03/22 08:17:21;;;;;;;17.10;13.40;;;;;;;12.77;73.84;99840.99;108623;1256;71669;-80
2023/03/22 08:19:49;;;;;;;17.00;13.00;;;;;;;12.92;73.02;99844.79;106405;1253;61395;-80
2023/03/22 08:22:24;;;;;;;15.30;11.90;;;;;;;13.01;72.24;99850.80;106449;1253;60627;-75
2023/03/22 08:25:10;;;;;;;16.80;12.60;;;;;;;13.07;72.20;99846.98;105926;1254;74144;-76
2023/03/22 08:27:38;;;;;;;18.70;14.00;;;;;;;13.08;71.35;99845.02;106152;1254;69858;-76
2023/03/22 08:30:06;;;;;;;18.30;12.70;;;;;;;13.08;71.46;99844.34;105999;1253;71735;-77
2023/03/22 08:32:33;;;;;;;15.70;14.10;;;;;;;13.11;71.16;99844.84;106008;1253;60513;-77
2023/03/22 08:35:08;;;;;;;16.00;13.50;;;;;;;13.14;71.20;99846.79;105944;1251;60585;-77
2023/03/22 08:37:35;;;;;;;15.20;13.60;;;;;;;13.21;71.96;99847.55;106019;1253;74839;-77
2023/03/22 08:40:06;;;;;;;17.90;13.80;;;;;;;13.31;71.12;99849.80;106047;1253;70194;-76
2023/03/22 08:42:38;;;;;;;14.80;13.20;;;;;;;13.34;70.62;99849.98;106209;1253;73297;-74
2023/03/22 08:45:05;;;;;;;14.90;12.70;;;;;;;13.35;70.10;99848.43;105962;1251;61457;-74
2023/03/22 08:47:33;;;;;;;18.70;12.50;;;;;;;13.40;70.66;99847.91;106156;1252;60642;-76
2023/03/22 08:50:02;;;;;;;15.10;11.90;;;;;;;13.54;70.19;99846.72;105914;1255;72665;-77
2023/03/22 08:53:04;;;;;;;15.00;12.00;;;;;;;13.83;69.55;99849.60;105946;1256;69270;-76
2023/03/22 08:55:34;;;;;;;14.90;11.10;;;;;;;13.99;69.43;99846.91;106051;1253;73841;-76
2023/03/22 08:58:15;;;;;;;12.60;11.20;;;;;;;14.19;69.08;99846.34;106003;1253;60505;-77
2023/03/22 09:01:01;;;;;;;13.10;10.60;;;;;;;14.44;67.84;99846.45;106003;1253;61294;-76
2023/03/22 09:03:47;;;;;;;15.00;10.90;;;;;;;14.58;66.63;99849.93;105938;1257;75004;-80
2023/03/22 09:06:15;;;;;;;10.10;9.00;;;;;;;14.65;66.89;99847.54;105961;1253;71409;-75
2023/03/22 09:08:51;;;;;;;14.70;10.90;;;;;;;14.71;65.15;99847.30;108261;1253;73544;-75
2023/03/22 09:11:21;;;;;;;13.30;11.70;;;;;;;14.74;64.65;99847.54;108629;1253;60884;-73
2023/03/22 09:13:49;;;;;;;13.40;12.10;;;;;;;14.84;64.06;99843.75;106961;1252;61314;-74
2023/03/22 09:16:19;;;;;;;13.30;11.60;;;;;;;15.16;66.45;99841.92;106201;1253;73591;-76
2023/03/22 09:18:46;;;;;;;11.60;10.40;;;;;;;15.77;65.45;99843.18;105933;1251;71188;-74
2023/03/22 09:21:17;;;;;;;11.90;10.80;;;;;;;16.34;63.01;99842.02;105739;1254;72222;-75
2023/03/22 09:23:49;;;;;;;11.70;10.40;;;;;;;16.63;61.50;99846.02;105794;1252;60455;-75
2023/03/22 09:26:21;;;;;;;11.70;9.40;;;;;;;16.87;61.31;99848.25;105963;1258;61359;-75
2023/03/22 09:28:49;;;;;;;10.00;8.90;;;;;;;17.11;60.80;99846.70;105803;1256;73064;-74
2023/03/22 09:31:19;;;;;;;12.50;9.90;;;;;;;17.38;59.65;99846.54;105910;1253;71395;-75
2023/03/22 09:33:49;;;;;;;9.00;8.10;;;;;;;17.52;59.21;99846.96;105759;1253;71361;-74
2023/03/22 09:36:17;;;;;;;10.00;8.60;;;;;;;17.57;57.81;99852.61;105834;1253;61343;-75
2023/03/22 09:38:45;;;;;;;10.60;9.50;;;;;;;17.55;57.74;99852.81;106047;1253;61218;-74
2023/03/22 09:41:26;;;;;;;10.00;8.30;;;;;;;17.50;57.04;99850.35;106247;1253;73162;-77
2023/03/22 09:43:57;;;;;;;10.30;9.20;;;;;;;17.35;56.03;99850.98;106068;1253;71306;-76
2023/03/22 09:46:29;;;;;;;12.00;9.50;;;;;;;17.27;55.36;99850.82;106184;1253;73429;-77
2023/03/22 09:49:00;;;;;;;10.00;8.40;;;;;;;17.37;55.96;99844.23;106278;1252;60491;-78
2023/03/22 09:51:46;;;;;;;9.20;8.30;;;;;;;17.84;57.55;99844.64;106217;1253;60470;-79
2023/03/22 09:54:33;;;;;;;10.20;8.00;;;;;;;18.65;56.93;99849.64;106255;1253;72349;-79
2023/03/22 09:57:45;;;;;;;9.40;7.90;;;;;;;19.65;55.70;99844.00;106325;1256;70907;-78
2023/03/22 10:00:28;;;;;;;8.00;7.20;;;;;;;20.71;53.24;99845.89;106369;1256;72483;-79
2023/03/22 10:03:31;;;;;;;7.60;6.90;;;;;;;21.15;49.63;99839.22;108687;1255;61433;-78
2023/03/22 10:06:07;;;;;;;8.20;7.40;;;;;;;20.92;48.09;99843.83;109250;1253;60265;-78
2023/03/22 10:08:43;;;;;;;7.90;7.20;;;;;;;20.48;48.45;99844.73;106284;1253;71738;-77
2023/03/22 10:11:17;;;;;;;9.70;7.00;;;;;;;20.05;49.05;99843.08;106153;1258;69394;-77
2023/03/22 10:14:09;;;;;;;8.50;6.60;;;;;;;19.72;49.12;99842.52;106112;1253;71765;-79
2023/03/22 10:16:37;;;;;;;9.70;8.50;;;;;;;19.37;50.00;99843.40;106148;1253;61064;-78
2023/03/22 10:19:11;;;;;;;10.00;8.90;;;;;;;19.13;50.21;99841.33;106608;1253;61218;-78
2023/03/22 10:21:38;;;;;;;12.80;10.20;;;;;;;18.83;50.21;99843.23;106086;1253;72813;-80
2023/03/22 10:24:15;;;;;;;8.00;5.80;;;;;;;18.45;50.44;99839.52;106188;1256;70364;-78
2023/03/22 10:26:44;;;;;;;6.80;5.70;;;;;;;17.98;50.52;99837.89;106084;1256;71573;-79
2023/03/22 10:29:30;;;;;;;7.50;5.50;;;;;;;17.57;51.00;99834.59;106224;1253;60600;-79
2023/03/22 10:32:08;;;;;;;5.80;4.90;;;;;;;17.15;51.59;99837.78;106612;1254;60401;-77
2023/03/22 10:34:35;;;;;;;7.20;5.90;;;;;;;16.80;52.10;99841.70;106551;1253;73236;-77
2023/03/22 10:37:03;;;;;;;7.90;5.60;;;;;;;16.49;52.42;99840.44;106051;1253;68752;-74
2023/03/22 10:39:35;;;;;;;8.50;6.10;;;;;;;16.17;53.09;99837.91;105807;1253;71877;-78
2023/03/22 10:42:14;;;;;;;8.00;5.60;;;;;;;15.86;53.17;99838.09;105975;1251;61694;-76
2023/03/22 10:44:49;;;;;;;6.60;5.20;;;;;;;15.56;53.71;99839.77;106284;1253;60514;-78
2023/03/22 10:47:18;;;;;;;6.60;5.00;;;;;;;15.36;54.77;99839.54;106462;1258;73629;-77
2023/03/22 10:52:47;;;;;;;6.50;5.10;;;;;;;15.06;55.74;99845.08;102724;1292;600451;-79
2023/03/22 10:55:16;;;;;;;6.20;4.90;;;;;;;15.04;55.77;99844.31;105180;1267;60376;-76
2023/03/22 10:57:58;;;;;;;7.70;5.10;;;;;;;15.12;55.92;99845.10;107796;1266;59218;-78
2023/03/22 11:00:27;;;;;;;7.30;5.30;;;;;;;15.38;56.21;99837.15;108441;1267;70788;-77
2023/03/22 11:02:58;;;;;;;6.70;5.10;;;;;;;15.96;56.52;99834.77;105418;1267;68166;-76
2023/03/22 11:05:32;;;;;;;6.00;5.40;;;;;;;16.67;54.87;99833.27;105251;1263;178202;-77
2023/03/22 11:08:01;;;;;;;6.90;5.80;;;;;;;17.50;53.71;99827.29;105780;1264;60431;-79
2023/03/22 11:10:33;;;;;;;6.80;5.70;;;;;;;18.47;52.09;99824.28;106347;1263;59934;-79
2023/03/22 11:13:08;;;;;;;7.90;6.20;;;;;;;19.55;50.04;99817.88;105630;1264;72601;-79
2023/03/22 11:15:57;;;;;;;6.70;5.40;;;;;;;20.67;47.53;99813.26;105339;1263;71551;-80
2023/03/22 11:18:29;;;;;;;6.60;5.30;;;;;;;21.77;44.82;99807.81;105278;1263;73760;-78
2023/03/22 11:20:59;;;;;;;8.50;5.40;;;;;;;22.55;43.61;99808.06;105247;1263;60874;-75
2023/03/22 11:23:29;;;;;;;7.70;5.70;;;;;;;23.37;42.59;99807.90;105366;1261;59831;-79
2023/03/22 11:26:02;;;;;;;7.40;6.40;;;;;;;24.32;42.22;99803.68;105933;1257;73778;-79
2023/03/22 11:28:35;;;;;;;7.00;5.40;;;;;;;25.17;40.14;99796.31;105836;1254;70613;-79
2023/03/22 11:31:04;;;;;;;5.90;4.70;;;;;;;25.41;38.63;99798.20;106050;1254;72315;-78
2023/03/22 11:33:33;;;;;;;5.60;5.10;;;;;;;25.01;37.85;99798.81;105924;1254;59711;-77
2023/03/22 11:36:13;;;;;;;7.30;5.30;;;;;;;24.36;38.82;99796.66;105904;1252;62088;-77
2023/03/22 11:38:44;;;;;;;6.70;6.10;;;;;;;23.77;39.11;99796.41;105792;1254;72373;-78
2023/03/22 11:41:22;;;;;;;6.20;5.60;;;;;;;23.01;39.51;99801.37;105920;1257;69431;-75
2023/03/22 11:43:53;;;;;;;7.60;5.60;;;;;;;22.37;40.03;99799.58;106004;1256;71698;-76
2023/03/22 11:46:21;;;;;;;8.00;6.40;;;;;;;21.65;41.14;99795.91;106089;1257;61134;-76